sensor_id;sensor_type;location;lat;lon;timestamp;pressure;altitude;pressure_sealevel;temperature;humidity
57628;BME280;43451;49.060;10.616;2023-04-26T00:02:21;96698.25;;;3.93;100.00
57628;BME280;43451;49.060;10.616;2023-04-26T00:04:50;96701.44;;;3.83;100.00
57628;BME280;43451;49.060;10.616;2023-04-26T00:07:15;96696.59;;;3.73;100.00
57628;BME280;43451;49.060;10.616;2023-04-26T00:09:41;96698.84;;;3.55;100.00
57628;BME280;43451;49.060;10.616;2023-04-26T00:12:08;96704.09;;;3.36;100.00
57628;BME280;43451;49.060;10.616;2023-04-26T00:14:35;96701.88;;;3.54;100.00
57628;BME280;43451;49.060;10.616;2023-04-26T00:17:01;96706.31;;;3.46;100.00
57628;BME280;43451;49.060;10.616;2023-04-26T00:19:28;96699.88;;;3.51;100.00
57628;BME280;43451;49.060;10.616;2023-04-26T00:21:53;96697.56;;;3.49;100.00
57628;BME280;43451;49.060;10.616;2023-04-26T00:24:19;96698.66;;;3.48;100.00
57628;BME280;43451;49.060;10.616;2023-04-26T00:26:45;96701.97;;;3.41;100.00
57628;BME280;43451;49.060;10.616;2023-04-26T00:29:10;96695.69;;;3.21;100.00
57628;BME280;43451;49.060;10.616;2023-04-26T00:31:35;96702.63;;;3.22;100.00
57628;BME280;43451;49.060;10.616;2023-04-26T00:34:01;96696.41;;;3.34;100.00
57628;BME280;43451;49.060;10.616;2023-04-26T00:36:26;96700.25;;;3.05;100.00
57628;BME280;43451;49.060;10.616;2023-04-26T00:38:51;96688.44;;;2.94;100.00
57628;BME280;43451;49.060;10.616;2023-04-26T00:41:17;96695.84;;;2.85;100.00
57628;BME280;43451;49.060;10.616;2023-04-26T00:43:42;96692.88;;;2.74;100.00
57628;BME280;43451;49.060;10.616;2023-04-26T00:46:08;96702.28;;;2.68;100.00
57628;BME280;43451;49.060;10.616;2023-04-26T00:48:35;96701.84;;;2.66;100.00
57628;BME280;43451;49.060;10.616;2023-04-26T00:51:00;96703.28;;;2.63;100.00
57628;BME280;43451;49.060;10.616;2023-04-26T00:53:25;96708.03;;;2.54;100.00
57628;BME280;43451;49.060;10.616;2023-04-26T00:55:51;96706.94;;;2.43;100.00
57628;BME280;43451;49.060;10.616;2023-04-26T00:58:16;96709.31;;;2.32;100.00
57628;BME280;43451;49.060;10.616;2023-04-26T01:00:45;96705.81;;;2.31;100.00
57628;BME280;43451;49.060;10.616;2023-04-26T01:03:10;96702.38;;;2.31;100.00
57628;BME280;43451;49.060;10.616;2023-04-26T01:05:39;96706.53;;;2.28;100.00
57628;BME280;43451;49.060;10.616;2023-04-26T01:08:04;96711.63;;;2.33;100.00
57628;BME280;43451;49.060;10.616;2023-04-26T01:10:33;96707.63;;;2.27;100.00
57628;BME280;43451;49.060;10.616;2023-04-26T01:13:00;96707.88;;;2.22;100.00
57628;BME280;43451;49.060;10.616;2023-04-26T01:15:25;96702.94;;;2.12;100.00
57628;BME280;43451;49.060;10.616;2023-04-26T01:17:52;96716.78;;;2.14;100.00
57628;BME280;43451;49.060;10.616;2023-04-26T01:20:17;96710.88;;;2.08;100.00
57628;BME280;43451;49.060;10.616;2023-04-26T01:22:43;96711.22;;;2.07;100.00
57628;BME280;43451;49.060;10.616;2023-04-26T01:25:10;96703.50;;;2.05;100.00
57628;BME280;43451;49.060;10.616;2023-04-26T01:27:36;96714.22;;;1.93;100.00
57628;BME280;43451;49.060;10.616;2023-04-26T01:30:01;96701.28;;;1.83;100.00
57628;BME280;43451;49.060;10.616;2023-04-26T01:32:27;96713.22;;;1.73;100.00
57628;BME280;43451;49.060;10.616;2023-04-26T01:34:52;96723.03;;;1.69;100.00
57628;BME280;43451;49.060;10.616;2023-04-26T01:37:17;96719.13;;;1.67;100.00
57628;BME280;43451;49.060;10.616;2023-04-26T01:39:43;96720.91;;;1.62;100.00
57628;BME280;43451;49.060;10.616;2023-04-26T01:42:08;96717.00;;;1.60;100.00
57628;BME280;43451;49.060;10.616;2023-04-26T01:44:33;96720.47;;;1.60;100.00
57628;BME280;43451;49.060;10.616;2023-04-26T01:46:59;96727.81;;;1.51;100.00
57628;BME280;43451;49.060;10.616;2023-04-26T01:49:24;96732.84;;;1.53;100.00
57628;BME280;43451;49.060;10.616;2023-04-26T01:51:50;96734.41;;;1.54;100.00
57628;BME280;43451;49.060;10.616;2023-04-26T01:54:15;96728.03;;;1.58;100.00
57628;BME280;43451;49.060;10.616;2023-04-26T01:56:40;96720.56;;;1.64;100.00
57628;BME280;43451;49.060;10.616;2023-04-26T01:59:06;96731.28;;;1.64;100.00
57628;BME280;43451;49.060;10.616;2023-04-26T02:01:31;96727.91;;;1.55;100.00
57628;BME280;43451;49.060;10.616;2023-04-26T02:03:56;96722.13;;;1.53;100.00
57628;BME280;43451;49.060;10.616;2023-04-26T02:06:22;96720.66;;;1.55;100.00
57628;BME280;43451;49.060;10.616;2023-04-26T02:08:47;96731.22;;;1.39;100.00
57628;BME280;43451;49.060;10.616;2023-04-26T02:11:13;96725.75;;;1.36;100.00
57628;BME280;43451;49.060;10.616;2023-04-26T02:13:38;96718.53;;;1.49;100.00
57628;BME280;43451;49.060;10.616;2023-04-26T02:16:04;96710.31;;;1.54;100.00
57628;BME280;43451;49.060;10.616;2023-04-26T02:18:30;96725.47;;;1.50;100.00
57628;BME280;43451;49.060;10.616;2023-04-26T02:20:55;96717.75;;;1.48;100.00
57628;BME280;43451;49.060;10.616;2023-04-26T02:23:20;96723.97;;;1.28;100.00
57628;BME280;43451;49.060;10.616;2023-04-26T02:25:47;96733.63;;;1.20;100.00
57628;BME280;43451;49.060;10.616;2023-04-26T02:28:13;96732.50;;;1.09;100.00
57628;BME280;43451;49.060;10.616;2023-04-26T02:30:40;96738.38;;;1.02;100.00
57628;BME280;43451;49.060;10.616;2023-04-26T02:33:06;96727.03;;;1.05;100.00
57628;BME280;43451;49.060;10.616;2023-04-26T02:35:32;96726.91;;;1.02;100.00
57628;BME280;43451;49.060;10.616;2023-04-26T02:37:58;96732.91;;;0.99;100.00
57628;BME280;43451;49.060;10.616;2023-04-26T02:40:23;96731.22;;;1.39;100.00
57628;BME280;43451;49.060;10.616;2023-04-26T02:42:49;96733.81;;;1.48;100.00
57628;BME280;43451;49.060;10.616;2023-04-26T02:45:14;96740.13;;;1.31;100.00
57628;BME280;43451;49.060;10.616;2023-04-26T02:47:39;96731.97;;;1.15;100.00
57628;BME280;43451;49.060;10.616;2023-04-26T02:50:05;96725.59;;;0.87;100.00
57628;BME280;43451;49.060;10.616;2023-04-26T02:52:31;96725.94;;;0.64;100.00
57628;BME280;43451;49.060;10.616;2023-04-26T02:54:57;96722.94;;;0.66;100.00
57628;BME280;43451;49.060;10.616;2023-04-26T02:57:22;96727.84;;;0.64;100.00
57628;BME280;43451;49.060;10.616;2023-04-26T02:59:47;96727.03;;;0.63;100.00
57628;BME280;43451;49.060;10.616;2023-04-26T03:02:13;96731.59;;;0.63;100.00
57628;BME280;43451;49.060;10.616;2023-04-26T03:04:38;96734.38;;;0.54;100.00
57628;BME280;43451;49.060;10.616;2023-04-26T03:07:04;96731.34;;;0.56;100.00
57628;BME280;43451;49.060;10.616;2023-04-26T03:09:29;96737.94;;;0.58;100.00
57628;BME280;43451;49.060;10.616;2023-04-26T03:11:55;96738.84;;;0.62;100.00
57628;BME280;43451;49.060;10.616;2023-04-26T03:14:20;96734.50;;;0.58;100.00
57628;BME280;43451;49.060;10.616;2023-04-26T03:16:46;96732.91;;;0.57;100.00
57628;BME280;43451;49.060;10.616;2023-04-26T03:19:12;96735.56;;;0.57;100.00
57628;BME280;43451;49.060;10.616;2023-04-26T03:21:37;96727.78;;;0.52;100.00
57628;BME280;43451;49.060;10.616;2023-04-26T03:24:03;96725.88;;;0.52;100.00
57628;BME280;43451;49.060;10.616;2023-04-26T03:26:28;96737.59;;;0.60;100.00
57628;BME280;43451;49.060;10.616;2023-04-26T03:28:54;96732.91;;;0.57;100.00
57628;BME280;43451;49.060;10.616;2023-04-26T03:31:19;96738.84;;;0.62;100.00
57628;BME280;43451;49.060;10.616;2023-04-26T03:33:45;96734.34;;;0.75;100.00
57628;BME280;43451;49.060;10.616;2023-04-26T03:36:11;96735.88;;;0.64;100.00
57628;BME280;43451;49.060;10.616;2023-04-26T03:38:36;96731.59;;;0.63;100.00
57628;BME280;43451;49.060;10.616;2023-04-26T03:41:02;96732.19;;;0.68;100.00
57628;BME280;43451;49.060;10.616;2023-04-26T03:43:27;96740.75;;;0.62;100.00
57628;BME280;43451;49.060;10.616;2023-04-26T03:45:53;96738.53;;;0.64;100.00
57628;BME280;43451;49.060;10.616;2023-04-26T03:48:18;96738.72;;;0.59;100.00
57628;BME280;43451;49.060;10.616;2023-04-26T03:50:44;96744.13;;;0.71;100.00
57628;BME280;43451;49.060;10.616;2023-04-26T03:53:10;96749.34;;;0.67;100.00
57628;BME280;43451;49.060;10.616;2023-04-26T03:55:35;96744.78;;;0.68;100.00
57628;BME280;43451;49.060;10.616;2023-04-26T03:58:01;96750.13;;;0.68;100.00
57628;BME280;43451;49.060;10.616;2023-04-26T04:00:27;96755.72;;;0.75;100.00
57628;BME280;43451;49.060;10.616;2023-04-26T04:02:53;96762.31;;;0.78;100.00
57628;BME280;43451;49.060;10.616;2023-04-26T04:05:18;96752.22;;;0.83;100.00
57628;BME280;43451;49.060;10.616;2023-04-26T04:07:43;96749.34;;;0.88;100.00
57628;BME280;43451;49.060;10.616;2023-04-26T04:10:09;96747.59;;;0.92;100.00
57628;BME280;43451;49.060;10.616;2023-04-26T04:12:34;96742.03;;;0.98;100.00
57628;BME280;43451;49.060;10.616;2023-04-26T04:15:00;96741.25;;;0.97;100.00
57628;BME280;43451;49.060;10.616;2023-04-26T04:17:26;96739.22;;;0.94;100.00
57628;BME280;43451;49.060;10.616;2023-04-26T04:19:51;96737.78;;;0.97;100.00
57628;BME280;43451;49.060;10.616;2023-04-26T04:22:16;96751.94;;;0.97;100.00
57628;BME280;43451;49.060;10.616;2023-04-26T04:24:41;96743.47;;;0.74;100.00
57628;BME280;43451;49.060;10.616;2023-04-26T04:27:08;96753.13;;;0.87;100.00
57628;BME280;43451;49.060;10.616;2023-04-26T04:29:33;96751.56;;;0.86;100.00
57628;BME280;43451;49.060;10.616;2023-04-26T04:31:59;96758.06;;;0.98;100.00
57628;BME280;43451;49.060;10.616;2023-04-26T04:34:24;96755.84;;;1.00;100.00
57628;BME280;43451;49.060;10.616;2023-04-26T04:36:50;96767.91;;;1.06;100.00
57628;BME280;43451;49.060;10.616;2023-04-26T04:39:15;96774.63;;;1.12;100.00
57628;BME280;43451;49.060;10.616;2023-04-26T04:41:41;96763.81;;;1.08;100.00
57628;BME280;43451;49.060;10.616;2023-04-26T04:44:16;96769.88;;;1.18;100.00
57628;BME280;43451;49.060;10.616;2023-04-26T04:46:42;96765.06;;;1.23;100.00
57628;BME280;43451;49.060;10.616;2023-04-26T04:49:08;96767.63;;;1.20;100.00
57628;BME280;43451;49.060;10.616;2023-04-26T04:51:36;96771.63;;;1.13;100.00
57628;BME280;43451;49.060;10.616;2023-04-26T04:54:11;96768.63;;;1.15;100.00
57628;BME280;43451;49.060;10.616;2023-04-26T04:56:37;96773.53;;;1.13;100.00
57628;BME280;43451;49.060;10.616;2023-04-26T04:59:02;96782.84;;;1.07;100.00
57628;BME280;43451;49.060;10.616;2023-04-26T05:01:29;96786.59;;;1.14;100.00
57628;BME280;43451;49.060;10.616;2023-04-26T05:03:56;96780.97;;;1.07;100.00
57628;BME280;43451;49.060;10.616;2023-04-26T05:06:21;96787.66;;;1.13;100.00
57628;BME280;43451;49.060;10.616;2023-04-26T05:08:47;96793.16;;;1.17;100.00
57628;BME280;43451;49.060;10.616;2023-04-26T05:11:12;96787.78;;;1.17;100.00
57628;BME280;43451;49.060;10.616;2023-04-26T05:13:37;96788.19;;;1.07;100.00
57628;BME280;43451;49.060;10.616;2023-04-26T05:16:03;96791.41;;;1.21;100.00
57628;BME280;43451;49.060;10.616;2023-04-26T05:18:28;96792.88;;;1.31;100.00
57628;BME280;43451;49.060;10.616;2023-04-26T05:20:53;96794.44;;;1.32;100.00
57628;BME280;43451;49.060;10.616;2023-04-26T05:23:19;96797.59;;;1.34;100.00
57628;BME280;43451;49.060;10.616;2023-04-26T05:25:44;96800.16;;;1.43;100.00
57628;BME280;43451;49.060;10.616;2023-04-26T05:28:09;96797.28;;;1.48;100.00
57628;BME280;43451;49.060;10.616;2023-04-26T05:30:37;96792.81;;;1.52;100.00
57628;BME280;43451;49.060;10.616;2023-04-26T05:33:02;96799.22;;;1.59;100.00
57628;BME280;43451;49.060;10.616;2023-04-26T05:35:27;96806.81;;;1.70;100.00
57628;BME280;43451;49.060;10.616;2023-04-26T05:37:53;96811.19;;;1.74;100.00
57628;BME280;43451;49.060;10.616;2023-04-26T05:40:18;96811.88;;;1.83;100.00
57628;BME280;43451;49.060;10.616;2023-04-26T05:42:43;96812.81;;;2.00;100.00
57628;BME280;43451;49.060;10.616;2023-04-26T05:45:09;96823.09;;;2.10;100.00
57628;BME280;43451;49.060;10.616;2023-04-26T05:47:35;96819.31;;;2.36;100.00
57628;BME280;43451;49.060;10.616;2023-04-26T05:50:00;96818.19;;;2.49;100.00
57628;BME280;43451;49.060;10.616;2023-04-26T05:52:26;96819.06;;;2.53;100.00
57628;BME280;43451;49.060;10.616;2023-04-26T05:54:52;96822.19;;;2.67;100.00
57628;BME280;43451;49.060;10.616;2023-04-26T05:57:17;96825.53;;;2.76;100.00
57628;BME280;43451;49.060;10.616;2023-04-26T05:59:43;96823.66;;;2.77;100.00
57628;BME280;43451;49.060;10.616;2023-04-26T06:02:09;96821.06;;;2.81;100.00
57628;BME280;43451;49.060;10.616;2023-04-26T06:04:35;96829.78;;;2.90;100.00
57628;BME280;43451;49.060;10.616;2023-04-26T06:07:01;96827.75;;;2.99;100.00
57628;BME280;43451;49.060;10.616;2023-04-26T06:09:26;96826.81;;;3.07;100.00
57628;BME280;43451;49.060;10.616;2023-04-26T06:11:52;96836.63;;;3.28;100.00
57628;BME280;43451;49.060;10.616;2023-04-26T06:14:17;96837.47;;;3.32;100.00
57628;BME280;43451;49.060;10.616;2023-04-26T06:16:43;96836.00;;;3.46;100.00
57628;BME280;43451;49.060;10.616;2023-04-26T06:19:08;96836.22;;;3.41;100.00
57628;BME280;43451;49.060;10.616;2023-04-26T06:21:34;96838.09;;;3.53;100.00
57628;BME280;43451;49.060;10.616;2023-04-26T06:23:59;96836.03;;;3.62;100.00
57628;BME280;43451;49.060;10.616;2023-04-26T06:26:24;96839.97;;;3.81;100.00
57628;BME280;43451;49.060;10.616;2023-04-26T06:28:50;96842.06;;;3.87;100.00
57628;BME280;43451;49.060;10.616;2023-04-26T06:31:15;96845.56;;;4.04;100.00
57628;BME280;43451;49.060;10.616;2023-04-26T06:33:40;96838.81;;;4.10;100.00
57628;BME280;43451;49.060;10.616;2023-04-26T06:36:09;96839.22;;;4.28;100.00
57628;BME280;43451;49.060;10.616;2023-04-26T06:38:35;96833.84;;;4.28;100.00
57628;BME280;43451;49.060;10.616;2023-04-26T06:41:00;96839.59;;;4.42;100.00
57628;BME280;43451;49.060;10.616;2023-04-26T06:43:25;96843.66;;;4.52;100.00
57628;BME280;43451;49.060;10.616;2023-04-26T06:45:51;96837.50;;;4.51;100.00
57628;BME280;43451;49.060;10.616;2023-04-26T06:48:17;96844.84;;;4.70;100.00
57628;BME280;43451;49.060;10.616;2023-04-26T06:50:42;96833.53;;;4.80;100.00
57628;BME280;43451;49.060;10.616;2023-04-26T06:53:07;96829.47;;;5.06;100.00
57628;BME280;43451;49.060;10.616;2023-04-26T06:55:33;96833.47;;;5.12;100.00
57628;BME280;43451;49.060;10.616;2023-04-26T06:57:59;96831.84;;;5.27;96.41
57628;BME280;43451;49.060;10.616;2023-04-26T07:00:24;96835.03;;;5.32;99.10
57628;BME280;43451;49.060;10.616;2023-04-26T07:02:49;96836.22;;;5.16;100.00
57628;BME280;43451;49.060;10.616;2023-04-26T07:05:15;96827.00;;;5.17;100.00
57628;BME280;43451;49.060;10.616;2023-04-26T07:07:40;96828.34;;;5.26;100.00
57628;BME280;43451;49.060;10.616;2023-04-26T07:10:06;96827.75;;;5.52;99.36
57628;BME280;43451;49.060;10.616;2023-04-26T07:12:32;96823.97;;;5.38;99.17
57628;BME280;43451;49.060;10.616;2023-04-26T07:14:57;96823.34;;;5.44;94.12
57628;BME280;43451;49.060;10.616;2023-04-26T07:17:23;96823.41;;;5.48;100.00
57628;BME280;43451;49.060;10.616;2023-04-26T07:19:48;96823.91;;;5.53;89.05
57628;BME280;43451;49.060;10.616;2023-04-26T07:22:13;96827.59;;;5.65;92.34
57628;BME280;43451;49.060;10.616;2023-04-26T07:24:38;96826.84;;;5.87;87.89
57628;BME280;43451;49.060;10.616;2023-04-26T07:27:04;96837.31;;;6.12;92.45
57628;BME280;43451;49.060;10.616;2023-04-26T07:29:29;96832.78;;;6.16;89.39
57628;BME280;43451;49.060;10.616;2023-04-26T07:31:55;96829.09;;;6.04;82.77
57628;BME280;43451;49.060;10.616;2023-04-26T07:34:21;96831.56;;;6.13;88.87
57628;BME280;43451;49.060;10.616;2023-04-26T07:36:46;96826.91;;;6.33;86.42
57628;BME280;43451;49.060;10.616;2023-04-26T07:39:11;96832.72;;;6.35;86.71
57628;BME280;43451;49.060;10.616;2023-04-26T07:41:37;96831.00;;;6.50;79.65
57628;BME280;43451;49.060;10.616;2023-04-26T07:44:02;96821.75;;;6.47;77.28
57628;BME280;43451;49.060;10.616;2023-04-26T07:46:28;96829.94;;;6.55;82.47
57628;BME280;43451;49.060;10.616;2023-04-26T07:48:53;96823.00;;;6.54;86.78
57628;BME280;43451;49.060;10.616;2023-04-26T07:51:19;96823.19;;;6.68;83.72
57628;BME280;43451;49.060;10.616;2023-04-26T07:53:44;96816.34;;;6.74;80.35
57628;BME280;43451;49.060;10.616;2023-04-26T07:56:10;96821.66;;;6.67;77.49
57628;BME280;43451;49.060;10.616;2023-04-26T07:58:35;96826.31;;;6.70;77.48
57628;BME280;43451;49.060;10.616;2023-04-26T08:01:01;96824.03;;;6.72;78.78
57628;BME280;43451;49.060;10.616;2023-04-26T08:03:27;96827.66;;;6.83;83.86
57628;BME280;43451;49.060;10.616;2023-04-26T08:05:53;96820.31;;;7.10;81.83
57628;BME280;43451;49.060;10.616;2023-04-26T08:08:19;96819.66;;;7.17;79.76
57628;BME280;43451;49.060;10.616;2023-04-26T08:10:44;96814.78;;;7.30;76.19
57628;BME280;43451;49.060;10.616;2023-04-26T08:13:10;96828.94;;;7.50;73.23
57628;BME280;43451;49.060;10.616;2023-04-26T08:15:35;96818.84;;;7.47;67.65
57628;BME280;43451;49.060;10.616;2023-04-26T08:18:00;96826.34;;;7.27;73.10
57628;BME280;43451;49.060;10.616;2023-04-26T08:20:26;96820.19;;;7.30;78.14
57628;BME280;43451;49.060;10.616;2023-04-26T08:22:57;96821.56;;;7.47;74.14
57628;BME280;43451;49.060;10.616;2023-04-26T08:25:23;96815.88;;;7.55;73.07
57628;BME280;43451;49.060;10.616;2023-04-26T08:27:48;96816.53;;;7.82;73.64
57628;BME280;43451;49.060;10.616;2023-04-26T08:30:14;96817.78;;;7.92;66.81
57628;BME280;43451;49.060;10.616;2023-04-26T08:32:39;96824.97;;;8.14;72.12
57628;BME280;43451;49.060;10.616;2023-04-26T08:35:05;96822.72;;;8.24;70.31
57628;BME280;43451;49.060;10.616;2023-04-26T08:37:30;96821.63;;;8.28;70.70
57628;BME280;43451;49.060;10.616;2023-04-26T08:39:56;96824.34;;;8.28;67.48
57628;BME280;43451;49.060;10.616;2023-04-26T08:42:22;96818.66;;;8.41;60.85
57628;BME280;43451;49.060;10.616;2023-04-26T08:44:53;96827.25;;;8.09;59.80
57628;BME280;43451;49.060;10.616;2023-04-26T08:47:21;96822.13;;;8.00;61.23
57628;BME280;43451;49.060;10.616;2023-04-26T08:49:52;96829.59;;;8.14;64.55
57628;BME280;43451;49.060;10.616;2023-04-26T08:52:23;96820.03;;;8.24;73.60
57628;BME280;43451;49.060;10.616;2023-04-26T08:54:51;96823.72;;;8.46;77.46
57628;BME280;43451;49.060;10.616;2023-04-26T08:57:17;96822.34;;;8.22;75.85
57628;BME280;43451;49.060;10.616;2023-04-26T08:59:43;96818.53;;;8.30;64.40
57628;BME280;43451;49.060;10.616;2023-04-26T09:02:09;96825.59;;;8.90;61.53
57628;BME280;43451;49.060;10.616;2023-04-26T09:04:35;96821.34;;;8.89;60.92
57628;BME280;43451;49.060;10.616;2023-04-26T09:07:02;96811.84;;;8.61;64.40
57628;BME280;43451;49.060;10.616;2023-04-26T09:09:28;96825.28;;;8.47;61.74
57628;BME280;43451;49.060;10.616;2023-04-26T09:11:59;96819.84;;;8.47;59.74
57628;BME280;43451;49.060;10.616;2023-04-26T09:14:26;96819.25;;;8.23;59.37
57628;BME280;43451;49.060;10.616;2023-04-26T09:16:51;96821.59;;;8.25;59.70
57628;BME280;43451;49.060;10.616;2023-04-26T09:19:17;96818.78;;;8.14;61.53
57628;BME280;43451;49.060;10.616;2023-04-26T09:21:43;96823.38;;;8.10;60.12
57628;BME280;43451;49.060;10.616;2023-04-26T09:24:09;96825.81;;;8.22;55.51
57628;BME280;43451;49.060;10.616;2023-04-26T09:26:35;96820.47;;;8.29;58.74
57628;BME280;43451;49.060;10.616;2023-04-26T09:29:10;96827.59;;;8.45;57.94
57628;BME280;43451;49.060;10.616;2023-04-26T09:31:36;96826.09;;;8.51;57.97
57628;BME280;43451;49.060;10.616;2023-04-26T09:34:02;96828.84;;;8.58;58.85
57628;BME280;43451;49.060;10.616;2023-04-26T09:36:28;96824.38;;;8.32;64.93
57628;BME280;43451;49.060;10.616;2023-04-26T09:38:53;96819.25;;;8.23;72.12
57628;BME280;43451;49.060;10.616;2023-04-26T09:41:19;96830.56;;;8.36;72.23
57628;BME280;43451;49.060;10.616;2023-04-26T09:43:44;96824.38;;;8.35;63.38
57628;BME280;43451;49.060;10.616;2023-04-26T09:46:10;96824.47;;;8.43;67.63
57628;BME280;43451;49.060;10.616;2023-04-26T09:48:46;96804.41;;;8.47;74.75
57628;BME280;43451;49.060;10.616;2023-04-26T09:51:24;96810.50;;;8.89;75.37
57628;BME280;43451;49.060;10.616;2023-04-26T09:53:49;96807.09;;;9.06;68.45
57628;BME280;43451;49.060;10.616;2023-04-26T09:56:16;96794.47;;;9.35;61.33
57628;BME280;43451;49.060;10.616;2023-04-26T10:01:08;96795.72;;;9.56;55.73
57628;BME280;43451;49.060;10.616;2023-04-26T10:03:34;96803.41;;;9.36;59.02
57628;BME280;43451;49.060;10.616;2023-04-26T10:06:00;96797.16;;;9.32;61.58
57628;BME280;43451;49.060;10.616;2023-04-26T10:08:26;96805.53;;;9.01;63.39
57628;BME280;43451;49.060;10.616;2023-04-26T10:10:51;96804.72;;;8.94;58.71
57628;BME280;43451;49.060;10.616;2023-04-26T10:13:17;96802.38;;;8.92;55.72
57628;BME280;43451;49.060;10.616;2023-04-26T10:15:43;96803.75;;;8.65;51.64
57628;BME280;43451;49.060;10.616;2023-04-26T10:18:09;96809.91;;;8.58;55.17
57628;BME280;43451;49.060;10.616;2023-04-26T10:20:34;96803.25;;;8.48;52.31
57628;BME280;43451;49.060;10.616;2023-04-26T10:23:03;96810.81;;;8.76;53.12
57628;BME280;43451;49.060;10.616;2023-04-26T10:25:37;96790.84;;;9.06;54.37
57628;BME280;43451;49.060;10.616;2023-04-26T10:28:02;96796.66;;;9.08;50.72
57628;BME280;43451;49.060;10.616;2023-04-26T10:30:28;96791.78;;;9.39;52.07
57628;BME280;43451;49.060;10.616;2023-04-26T10:35:20;96777.81;;;9.29;49.37
57628;BME280;43451;49.060;10.616;2023-04-26T10:45:43;96776.75;;;8.75;52.57
57628;BME280;43451;49.060;10.616;2023-04-26T10:53:21;96771.84;;;8.99;54.80
57628;BME280;43451;49.060;10.616;2023-04-26T10:55:47;96764.63;;;9.32;53.06
57628;BME280;43451;49.060;10.616;2023-04-26T10:58:25;96760.81;;;9.58;52.09
57628;BME280;43451;49.060;10.616;2023-04-26T11:03:41;96769.28;;;9.35;48.15
57628;BME280;43451;49.060;10.616;2023-04-26T11:06:10;96769.31;;;9.42;49.05
57628;BME280;43451;49.060;10.616;2023-04-26T11:08:39;96765.47;;;9.57;49.48
57628;BME280;43451;49.060;10.616;2023-04-26T11:11:06;96779.09;;;9.79;49.17
57628;BME280;43451;49.060;10.616;2023-04-26T11:13:41;96765.13;;;9.73;50.67
57628;BME280;43451;49.060;10.616;2023-04-26T11:16:07;96758.56;;;9.74;52.19
57628;BME280;43451;49.060;10.616;2023-04-26T11:18:34;96767.06;;;9.65;52.52
57628;BME280;43451;49.060;10.616;2023-04-26T11:20:59;96762.41;;;9.55;51.59
57628;BME280;43451;49.060;10.616;2023-04-26T11:23:26;96760.09;;;9.68;51.49
57628;BME280;43451;49.060;10.616;2023-04-26T11:25:52;96762.81;;;9.71;53.98
57628;BME280;43451;49.060;10.616;2023-04-26T11:28:19;96759.34;;;9.82;53.39
57628;BME280;43451;49.060;10.616;2023-04-26T11:30:44;96757.81;;;9.88;52.11
57628;BME280;43451;49.060;10.616;2023-04-26T11:33:16;96760.53;;;10.02;48.56
57628;BME280;43451;49.060;10.616;2023-04-26T11:35:47;96763.25;;;10.16;49.71
57628;BME280;43451;49.060;10.616;2023-04-26T11:38:12;96764.03;;;10.13;49.66
57628;BME280;43451;49.060;10.616;2023-04-26T11:40:39;96761.72;;;10.15;47.72
57628;BME280;43451;49.060;10.616;2023-04-26T11:43:05;96750.84;;;10.08;48.24
57628;BME280;43451;49.060;10.616;2023-04-26T11:45:31;96743.88;;;10.25;48.32
57628;BME280;43451;49.060;10.616;2023-04-26T11:47:57;96749.31;;;10.21;49.95
57628;BME280;43451;49.060;10.616;2023-04-26T11:50:24;96746.19;;;10.16;49.15
57628;BME280;43451;49.060;10.616;2023-04-26T11:52:52;96755.88;;;10.24;50.66
57628;BME280;43451;49.060;10.616;2023-04-26T11:55:18;96746.22;;;10.37;50.00
57628;BME280;43451;49.060;10.616;2023-04-26T11:57:48;96740.41;;;10.32;46.87
57628;BME280;43451;49.060;10.616;2023-04-26T12:00:14;96743.13;;;10.39;48.65
57628;BME280;43451;49.060;10.616;2023-04-26T12:02:46;96740.00;;;10.51;55.72
57628;BME280;43451;49.060;10.616;2023-04-26T12:05:25;96736.47;;;10.68;55.89
57628;BME280;43451;49.060;10.616;2023-04-26T12:07:58;96738.41;;;10.68;48.03
57628;BME280;43451;49.060;10.616;2023-04-26T12:12:52;96731.38;;;10.88;53.30
57628;BME280;43451;49.060;10.616;2023-04-26T12:15:22;96742.63;;;11.01;50.94
57628;BME280;43451;49.060;10.616;2023-04-26T12:17:52;96735.28;;;10.91;48.47
57628;BME280;43451;49.060;10.616;2023-04-26T12:20:18;96743.88;;;10.61;47.54
57628;BME280;43451;49.060;10.616;2023-04-26T12:22:55;96745.41;;;10.65;49.08
57628;BME280;43451;49.060;10.616;2023-04-26T12:25:21;96732.59;;;10.59;49.39
57628;BME280;43451;49.060;10.616;2023-04-26T12:27:46;96718.66;;;10.50;46.24
57628;BME280;43451;49.060;10.616;2023-04-26T12:30:11;96721.31;;;10.75;49.85
57628;BME280;43451;49.060;10.616;2023-04-26T12:32:37;96715.13;;;10.67;47.06
57628;BME280;43451;49.060;10.616;2023-04-26T12:35:02;96707.75;;;10.64;52.15
57628;BME280;43451;49.060;10.616;2023-04-26T12:37:28;96716.63;;;10.86;47.28
57628;BME280;43451;49.060;10.616;2023-04-26T12:39:53;96710.00;;;11.01;45.36
57628;BME280;43451;49.060;10.616;2023-04-26T12:42:18;96704.13;;;11.13;47.27
57628;BME280;43451;49.060;10.616;2023-04-26T12:44:43;96698.75;;;10.92;49.52
57628;BME280;43451;49.060;10.616;2023-04-26T12:47:09;96702.53;;;11.20;46.95
57628;BME280;43451;49.060;10.616;2023-04-26T12:49:34;96704.72;;;11.46;46.80
57628;BME280;43451;49.060;10.616;2023-04-26T12:51:59;96698.56;;;11.31;49.57
57628;BME280;43451;49.060;10.616;2023-04-26T12:54:25;96687.34;;;11.29;48.93
57628;BME280;43451;49.060;10.616;2023-04-26T12:56:50;96690.72;;;11.48;50.38
57628;BME280;43451;49.060;10.616;2023-04-26T12:59:16;96697.09;;;11.20;46.65
57628;BME280;43451;49.060;10.616;2023-04-26T13:01:41;96687.81;;;11.06;51.11
57628;BME280;43451;49.060;10.616;2023-04-26T13:04:07;96688.25;;;10.90;51.16
57628;BME280;43451;49.060;10.616;2023-04-26T13:06:32;96689.44;;;10.93;46.83
57628;BME280;43451;49.060;10.616;2023-04-26T13:08:58;96697.09;;;11.16;47.69
57628;BME280;43451;49.060;10.616;2023-04-26T13:11:23;96698.56;;;11.35;46.49